createdAt,value
2019-03-05T00:00:58.297Z,9.30
2019-03-05T00:01:58.307Z,9.40
2019-03-05T00:02:58.305Z,5.90
2019-03-05T00:03:58.263Z,4.40
2019-03-05T00:04:58.253Z,6.80
2019-03-05T00:05:58.258Z,4.40
2019-03-05T00:06:58.243Z,5.30
2019-03-05T00:07:58.247Z,5.70
2019-03-05T00:08:58.207Z,5.80
2019-03-05T00:09:58.200Z,6.10
2019-03-05T00:10:58.189Z,9.30
2019-03-05T00:11:58.179Z,5.70
2019-03-05T00:12:58.193Z,5.90
2019-03-05T00:13:58.160Z,6.40
2019-03-05T00:14:58.168Z,6.10
2019-03-05T00:15:58.137Z,4.80
2019-03-05T00:16:58.122Z,5.70
2019-03-05T00:17:58.134Z,5.10
2019-03-05T00:18:58.096Z,7.00
2019-03-05T00:19:58.087Z,5.20
2019-03-05T00:20:58.098Z,6.90
2019-03-05T00:21:58.074Z,7.10
2019-03-05T00:22:58.074Z,7.40
2019-03-05T00:23:58.048Z,7.60
2019-03-05T00:24:58.028Z,6.90
2019-03-05T00:25:58.016Z,5.80
2019-03-05T00:26:58.006Z,8.30
2019-03-05T00:27:58.025Z,6.80
2019-03-05T00:28:57.992Z,3.70
2019-03-05T00:29:57.970Z,6.90
2019-03-05T00:30:57.960Z,5.60
2019-03-05T00:31:57.959Z,5.60
2019-03-05T00:32:57.962Z,7.70
2019-03-05T00:33:57.928Z,7.60
2019-03-05T00:34:57.915Z,5.10
2019-03-05T00:35:57.912Z,5.50
2019-03-05T00:36:57.889Z,9.30
2019-03-05T00:37:57.926Z,6.70
2019-03-05T00:38:57.890Z,5.00
2019-03-05T00:39:57.856Z,7.00
2019-03-05T00:40:57.854Z,7.50
2019-03-05T00:41:57.870Z,7.70
2019-03-05T00:42:57.859Z,5.90
2019-03-05T00:43:57.813Z,7.50
2019-03-05T00:44:57.807Z,4.90
2019-03-05T00:45:57.786Z,5.00
2019-03-05T00:46:57.780Z,4.90
2019-03-05T00:47:57.794Z,6.10
2019-03-05T00:48:57.757Z,3.60
2019-03-05T00:49:57.744Z,3.30
2019-03-05T00:50:57.733Z,5.00
2019-03-05T00:51:57.719Z,5.50
2019-03-05T00:52:57.739Z,3.80
2019-03-05T00:53:57.704Z,5.00
2019-03-05T00:54:57.691Z,4.20
2019-03-05T00:55:57.671Z,3.00
2019-03-05T00:56:57.661Z,3.00
2019-03-05T00:57:57.675Z,2.70
2019-03-05T00:58:57.640Z,5.60
2019-03-05T00:59:57.631Z,2.90
2019-03-05T01:00:57.615Z,2.00
2019-03-05T01:01:57.614Z,1.20
2019-03-05T01:02:57.598Z,1.10
2019-03-05T01:03:57.632Z,1.70
2019-03-05T01:04:57.580Z,1.60
2019-03-05T01:05:57.573Z,1.20
2019-03-05T01:06:57.551Z,1.20
2019-03-05T01:07:57.542Z,1.70
2019-03-05T01:08:57.564Z,0.90
2019-03-05T01:09:57.530Z,0.90
2019-03-05T01:10:57.506Z,1.40
2019-03-05T01:11:57.512Z,1.00
2019-03-05T01:12:57.505Z,1.30
2019-03-05T01:13:57.502Z,2.10
2019-03-05T01:14:57.462Z,1.50
2019-03-05T01:15:57.467Z,2.40
2019-03-05T01:16:57.453Z,1.90
2019-03-05T01:17:57.431Z,1.60
2019-03-05T01:18:57.446Z,1.80
2019-03-05T01:19:57.423Z,1.50
2019-03-05T01:20:57.402Z,0.90
2019-03-05T01:21:57.384Z,4.10
2019-03-05T01:22:57.401Z,1.60
2019-03-05T01:23:57.406Z,0.90
2019-03-05T01:24:57.350Z,1.70
2019-03-05T01:25:57.352Z,1.20
2019-03-05T01:26:57.328Z,0.80
2019-03-05T01:27:57.335Z,1.10
2019-03-05T01:28:57.332Z,0.80
2019-03-05T01:29:57.293Z,1.20
2019-03-05T01:30:57.283Z,1.30
2019-03-05T01:31:57.273Z,1.30
2019-03-05T01:32:57.278Z,1.80
2019-03-05T01:33:57.294Z,0.50
2019-03-05T01:34:57.238Z,1.10
2019-03-05T01:35:57.241Z,0.80
2019-03-05T01:36:57.239Z,1.20
2019-03-05T01:37:57.234Z,1.40
2019-03-05T01:38:57.221Z,1.40
2019-03-05T01:39:57.215Z,1.10
2019-03-05T01:40:57.169Z,1.60
2019-03-05T01:41:57.161Z,0.90
2019-03-05T01:42:57.152Z,3.20
2019-03-05T01:43:57.164Z,2.30
2019-03-05T01:44:57.158Z,1.80
2019-03-05T01:45:57.116Z,1.20
2019-03-05T01:46:57.104Z,1.30
2019-03-05T01:47:57.098Z,1.00
2019-03-05T01:48:57.086Z,1.40
2019-03-05T01:49:57.105Z,1.20
2019-03-05T01:50:57.063Z,0.90
2019-03-05T01:51:57.048Z,1.00
2019-03-05T01:52:57.038Z,1.50
2019-03-05T01:53:57.029Z,2.20
2019-03-05T01:54:57.047Z,1.70
2019-03-05T01:55:57.009Z,0.50
2019-03-05T01:56:56.996Z,1.50
2019-03-05T01:57:56.980Z,1.00
2019-03-05T01:58:56.998Z,1.00
2019-03-05T01:59:56.998Z,0.60
2019-03-05T02:00:56.955Z,1.50
2019-03-05T02:01:56.938Z,1.00
2019-03-05T02:02:56.927Z,1.20
2019-03-05T02:03:56.921Z,1.40
2019-03-05T02:04:56.901Z,1.30
2019-03-05T02:05:56.915Z,1.40
2019-03-05T02:06:56.879Z,1.50
2019-03-05T02:07:56.886Z,1.90
2019-03-05T02:08:56.863Z,1.10
2019-03-05T02:09:56.850Z,1.40
2019-03-05T02:10:56.865Z,0.60
2019-03-05T02:11:56.826Z,1.50
2019-03-05T02:12:56.812Z,1.60
2019-03-05T02:13:56.801Z,1.50
2019-03-05T02:14:56.793Z,2.50
2019-03-05T02:15:56.808Z,1.30
2019-03-05T02:16:56.766Z,1.20
2019-03-05T02:17:56.762Z,1.30
2019-03-05T02:18:56.763Z,2.80
2019-03-05T02:19:56.733Z,1.20
2019-03-05T02:20:56.758Z,1.70
2019-03-05T02:21:56.713Z,1.50
2019-03-05T02:22:56.714Z,2.00
2019-03-05T02:23:56.692Z,2.00
2019-03-05T02:24:56.722Z,1.50
2019-03-05T02:25:56.711Z,1.00
2019-03-05T02:26:56.655Z,1.50
2019-03-05T02:27:56.645Z,1.60
2019-03-05T02:28:56.636Z,2.50
2019-03-05T02:29:56.634Z,2.50
2019-03-05T02:30:56.642Z,2.80
2019-03-05T02:31:56.614Z,2.80
2019-03-05T02:32:56.606Z,3.20
2019-03-05T02:33:56.577Z,4.80
2019-03-05T02:34:56.568Z,3.60
2019-03-05T02:35:56.583Z,2.50
2019-03-05T02:36:56.549Z,2.90
2019-03-05T02:37:56.541Z,3.30
2019-03-05T02:38:56.524Z,1.90
2019-03-05T02:39:56.510Z,1.40
2019-03-05T02:40:56.513Z,4.70
2019-03-05T02:41:56.520Z,3.30
2019-03-05T02:42:56.477Z,4.10
2019-03-05T02:43:56.465Z,3.00
2019-03-05T02:44:56.454Z,1.90
2019-03-05T02:45:56.443Z,1.90
2019-03-05T02:46:56.458Z,5.20
2019-03-05T02:47:56.433Z,4.10
2019-03-05T02:48:56.410Z,4.00
2019-03-05T02:49:56.399Z,3.00
2019-03-05T02:50:56.392Z,5.30
2019-03-05T02:51:56.402Z,3.20
2019-03-05T02:53:00.134Z,3.30
2019-03-05T02:53:56.377Z,2.80
2019-03-05T02:54:56.348Z,2.60
2019-03-05T02:55:56.336Z,3.70
2019-03-05T02:56:56.364Z,4.30
2019-03-05T02:57:56.310Z,5.10
2019-03-05T02:58:56.308Z,2.40
2019-03-05T02:59:56.290Z,5.30
2019-03-05T03:00:56.280Z,2.20
2019-03-05T03:01:56.266Z,3.80
2019-03-05T03:02:56.276Z,4.20
2019-03-05T03:03:56.241Z,3.70
2019-03-05T03:04:56.234Z,1.90
2019-03-05T03:05:56.224Z,3.90
2019-03-05T03:06:56.214Z,6.50
2019-03-05T03:07:56.229Z,4.80
2019-03-05T03:08:56.189Z,3.30
2019-03-05T03:09:56.174Z,4.50
2019-03-05T03:10:56.165Z,5.50
2019-03-05T03:11:56.178Z,3.90
2019-03-05T03:12:56.169Z,4.10
2019-03-05T03:13:56.129Z,4.90
2019-03-05T03:14:56.120Z,3.50
2019-03-05T03:15:56.109Z,4.90
2019-03-05T03:16:56.104Z,3.20
2019-03-05T03:17:56.122Z,4.20
2019-03-05T03:18:56.076Z,5.00
2019-03-05T03:19:56.060Z,3.40
2019-03-05T03:20:56.052Z,3.90
2019-03-05T03:21:56.040Z,4.10
2019-03-05T03:22:56.056Z,3.60
2019-03-05T03:23:56.023Z,5.00
2019-03-05T03:24:56.011Z,4.80
2019-03-05T03:25:56.019Z,4.30
2019-03-05T03:26:55.984Z,5.10
2019-03-05T03:27:56.006Z,4.70
2019-03-05T03:28:55.959Z,7.20
2019-03-05T03:29:55.953Z,6.50
2019-03-05T03:30:55.939Z,6.50
2019-03-05T03:31:55.969Z,4.70
2019-03-05T03:32:55.960Z,5.90
2019-03-05T03:33:55.927Z,5.20
2019-03-05T03:34:55.904Z,6.20
2019-03-05T03:35:55.888Z,5.40
2019-03-05T03:36:55.874Z,5.00
2019-03-05T03:37:55.863Z,5.20
2019-03-05T03:38:55.877Z,3.00
2019-03-05T03:39:55.855Z,3.60
2019-03-05T03:40:55.848Z,4.20
2019-03-05T03:41:55.815Z,4.80
2019-03-05T03:42:55.802Z,3.90
2019-03-05T03:43:55.818Z,4.80
2019-03-05T03:44:55.782Z,3.40
2019-03-05T03:45:55.781Z,6.00
2019-03-05T03:46:55.758Z,4.40
2019-03-05T03:47:55.746Z,5.80
2019-03-05T03:48:55.759Z,3.70
2019-03-05T03:49:55.726Z,3.70
2019-03-05T03:50:55.712Z,4.40
2019-03-05T03:51:55.701Z,3.40
2019-03-05T03:52:55.708Z,4.10
2019-03-05T03:53:55.704Z,5.50
2019-03-05T03:54:55.682Z,4.20
2019-03-05T03:55:55.660Z,3.70
2019-03-05T03:56:55.780Z,5.00
2019-03-05T03:57:55.635Z,4.30
2019-03-05T03:58:55.650Z,5.50
2019-03-05T03:59:55.614Z,6.20
2019-03-05T04:00:55.604Z,4.30
2019-03-05T04:01:55.589Z,3.20
2019-03-05T04:02:55.591Z,5.20
2019-03-05T04:03:55.595Z,3.80
2019-03-05T04:04:55.557Z,3.60
2019-03-05T04:05:55.557Z,5.50
2019-03-05T04:06:55.533Z,4.20
2019-03-05T04:07:55.525Z,4.90
2019-03-05T04:08:55.543Z,5.50
2019-03-05T04:09:55.506Z,4.00
2019-03-05T04:10:55.487Z,4.00
2019-03-05T04:11:55.477Z,4.70
2019-03-05T04:12:55.471Z,4.30
2019-03-05T04:13:55.478Z,3.70
2019-03-05T04:14:55.449Z,6.60
2019-03-05T04:15:55.432Z,4.20
2019-03-05T04:16:55.423Z,3.80
2019-03-05T04:17:55.416Z,4.00
2019-03-05T04:18:55.425Z,4.90
2019-03-05T04:19:55.387Z,6.10
2019-03-05T04:20:55.406Z,3.60
2019-03-05T04:21:55.368Z,4.90
2019-03-05T04:22:55.352Z,5.60
2019-03-05T04:23:55.374Z,3.70
2019-03-05T04:24:55.331Z,5.80
2019-03-05T04:25:55.324Z,4.20
2019-03-05T04:26:55.372Z,4.80
2019-03-05T04:27:55.309Z,4.20
2019-03-05T04:28:55.315Z,3.70
2019-03-05T04:29:55.274Z,4.20
2019-03-05T04:30:55.261Z,5.10
2019-03-05T04:31:55.251Z,4.90
2019-03-05T04:32:55.242Z,4.70
2019-03-05T04:33:55.229Z,6.20
2019-03-05T04:34:55.259Z,6.70
2019-03-05T04:35:55.205Z,4.30
2019-03-05T04:36:55.196Z,4.10
2019-03-05T04:37:55.188Z,5.50
2019-03-05T04:38:55.171Z,4.80
2019-03-05T04:39:55.190Z,4.70
2019-03-05T04:40:55.155Z,3.70
2019-03-05T04:41:55.137Z,4.00
2019-03-05T04:42:55.130Z,5.10
2019-03-05T04:43:55.119Z,4.20
2019-03-05T04:44:55.134Z,5.10
2019-03-05T04:45:55.101Z,4.40
2019-03-05T04:46:55.083Z,5.30
2019-03-05T04:47:55.071Z,5.00
2019-03-05T04:48:55.059Z,5.00
2019-03-05T04:49:55.081Z,3.10
2019-03-05T04:50:55.037Z,3.80
2019-03-05T04:51:55.036Z,4.10
2019-03-05T04:52:55.014Z,5.00
2019-03-05T04:53:55.002Z,4.20
2019-03-05T04:54:55.020Z,2.70
2019-03-05T04:55:54.982Z,4.10
2019-03-05T04:56:54.969Z,5.60
2019-03-05T04:57:54.968Z,5.90
2019-03-05T04:58:54.948Z,2.30
2019-03-05T04:59:54.967Z,3.30
2019-03-05T05:00:54.930Z,4.80
2019-03-05T05:01:54.913Z,5.00
2019-03-05T05:02:54.906Z,3.90
2019-03-05T05:03:54.906Z,2.60
2019-03-05T05:04:54.880Z,4.70
2019-03-05T05:05:54.894Z,3.90
2019-03-05T05:06:54.867Z,3.40
2019-03-05T05:07:54.847Z,3.60
2019-03-05T05:08:54.835Z,2.60
2019-03-05T05:09:54.832Z,2.70
2019-03-05T05:10:54.840Z,3.20
2019-03-05T05:11:54.803Z,4.70
2019-03-05T05:12:54.799Z,4.70
2019-03-05T05:13:54.778Z,4.60
2019-03-05T05:14:54.764Z,2.60
2019-03-05T05:15:54.797Z,3.60
2019-03-05T05:16:54.743Z,4.00
2019-03-05T05:17:54.734Z,4.00
2019-03-05T05:18:54.721Z,3.70
2019-03-05T05:19:54.713Z,4.00
2019-03-05T05:20:54.740Z,5.60
2019-03-05T05:21:54.694Z,4.10
2019-03-05T05:22:54.677Z,4.20
2019-03-05T05:23:54.671Z,5.40
2019-03-05T05:24:54.655Z,3.50
2019-03-05T05:25:54.670Z,6.60
2019-03-05T05:26:54.631Z,5.50
2019-03-05T05:27:54.621Z,3.80
2019-03-05T05:28:54.619Z,4.50
2019-03-05T05:29:54.618Z,4.10
2019-03-05T05:30:54.614Z,5.20
2019-03-05T05:31:54.589Z,4.50
2019-03-05T05:32:54.567Z,3.80
2019-03-05T05:33:54.562Z,4.10
2019-03-05T05:34:54.552Z,3.80
2019-03-05T05:35:54.562Z,3.60
2019-03-05T05:36:54.522Z,4.00
2019-03-05T05:37:54.522Z,5.30
2019-03-05T05:38:54.502Z,4.90
2019-03-05T05:39:54.492Z,4.40
2019-03-05T05:40:54.514Z,4.00
2019-03-05T05:41:54.470Z,4.10
2019-03-05T05:42:54.481Z,4.60
2019-03-05T05:43:54.444Z,4.30
2019-03-05T05:44:54.438Z,3.20
2019-03-05T05:45:54.452Z,4.60
2019-03-05T05:46:54.413Z,4.40
2019-03-05T05:47:54.431Z,3.80
2019-03-05T05:48:54.388Z,3.80
2019-03-05T05:49:54.382Z,3.90
2019-03-05T05:50:54.373Z,4.70
2019-03-05T05:51:54.380Z,3.30
2019-03-05T05:52:54.352Z,5.20
2019-03-05T05:53:54.333Z,4.70
2019-03-05T05:54:54.324Z,2.80
2019-03-05T05:55:54.322Z,4.70
2019-03-05T05:56:54.329Z,4.60
2019-03-05T05:57:54.299Z,4.00
2019-03-05T05:58:54.285Z,4.20
2019-03-05T05:59:54.269Z,2.30
2019-03-05T06:00:54.257Z,6.20
2019-03-05T06:01:54.278Z,5.00
2019-03-05T06:02:54.234Z,2.70
2019-03-05T06:03:54.225Z,7.30
2019-03-05T06:04:54.216Z,4.70
2019-03-05T06:05:54.200Z,3.80
2019-03-05T06:06:54.213Z,6.40
2019-03-05T06:07:54.178Z,6.30
2019-03-05T06:08:54.166Z,4.80
2019-03-05T06:09:54.167Z,3.30
2019-03-05T06:10:54.144Z,4.10
2019-03-05T06:11:54.159Z,5.40
2019-03-05T06:12:54.122Z,7.00
2019-03-05T06:13:54.116Z,5.90
2019-03-05T06:14:54.105Z,4.00
2019-03-05T06:15:54.093Z,4.20
2019-03-05T06:16:54.104Z,4.50
2019-03-05T06:17:54.074Z,4.90
2019-03-05T06:18:54.058Z,4.30
2019-03-05T06:19:54.051Z,5.20
2019-03-05T06:20:54.041Z,6.90
2019-03-05T06:21:54.049Z,3.60
2019-03-05T06:22:54.014Z,6.20
2019-03-05T06:23:54.007Z,4.00
2019-03-05T06:24:53.989Z,3.60
2019-03-05T06:25:53.980Z,3.50
2019-03-05T06:26:53.994Z,3.80
2019-03-05T06:27:53.957Z,2.50
2019-03-05T06:28:53.945Z,3.60
2019-03-05T06:29:53.936Z,4.10
2019-03-05T06:30:53.926Z,3.60
2019-03-05T06:31:53.940Z,3.80
2019-03-05T06:32:53.915Z,3.80
2019-03-05T06:33:53.892Z,4.50
2019-03-05T06:34:53.880Z,4.60
2019-03-05T06:35:53.876Z,4.60
2019-03-05T06:36:53.864Z,4.30
2019-03-05T06:37:53.876Z,3.90
2019-03-05T06:38:53.835Z,4.00
2019-03-05T06:39:53.828Z,3.50
2019-03-05T06:40:53.820Z,3.90
2019-03-05T06:41:53.809Z,3.70
2019-03-05T06:42:53.816Z,2.40
2019-03-05T06:43:53.779Z,5.60
2019-03-05T06:44:53.777Z,4.70
2019-03-05T06:45:53.766Z,3.80
2019-03-05T06:46:53.748Z,4.10
2019-03-05T06:47:53.765Z,6.20
2019-03-05T06:48:53.738Z,4.00
2019-03-05T06:49:53.723Z,3.10
2019-03-05T06:50:53.703Z,3.30
2019-03-05T06:51:53.696Z,2.30
2019-03-05T06:52:53.705Z,3.00
2019-03-05T06:53:53.668Z,3.50
2019-03-05T06:54:53.656Z,4.10
2019-03-05T06:55:53.660Z,3.90
2019-03-05T06:56:53.640Z,3.10
2019-03-05T06:57:53.650Z,2.00
2019-03-05T06:58:53.618Z,2.20
2019-03-05T06:59:53.606Z,3.00
2019-03-05T07:00:53.595Z,1.90
2019-03-05T07:01:53.604Z,4.60
2019-03-05T07:02:53.598Z,4.70
2019-03-05T07:03:53.562Z,2.00
2019-03-05T07:04:53.555Z,3.30
2019-03-05T07:05:53.542Z,3.20
2019-03-05T07:06:53.532Z,3.40
2019-03-05T07:07:53.541Z,2.20
2019-03-05T07:08:53.507Z,2.60
2019-03-05T07:09:53.494Z,3.00
2019-03-05T07:10:53.491Z,2.80
2019-03-05T07:11:53.484Z,2.50
2019-03-05T07:12:53.485Z,3.50
2019-03-05T07:13:53.449Z,3.90
2019-03-05T07:14:53.444Z,3.90
2019-03-05T07:15:53.426Z,3.10
2019-03-05T07:16:53.418Z,3.30
2019-03-05T07:17:53.431Z,2.10
2019-03-05T07:18:53.421Z,3.10
2019-03-05T07:19:57.947Z,3.40
2019-03-05T07:20:53.380Z,2.50
2019-03-05T07:21:53.381Z,2.00
2019-03-05T07:22:53.371Z,4.10
2019-03-05T07:23:53.366Z,4.40
2019-03-05T07:24:53.328Z,3.60
2019-03-05T07:25:53.316Z,2.90
2019-03-05T07:26:53.305Z,4.00
2019-03-05T07:27:53.302Z,3.10
2019-03-05T07:28:53.316Z,3.00
2019-03-05T07:29:53.281Z,2.90
2019-03-05T07:30:53.263Z,4.10
2019-03-05T07:31:53.254Z,4.60
2019-03-05T07:32:53.249Z,3.30
2019-03-05T07:33:53.254Z,2.80
2019-03-05T07:34:53.219Z,2.70
2019-03-05T07:35:53.213Z,2.50
2019-03-05T07:36:53.197Z,3.90
2019-03-05T07:37:53.209Z,3.00
2019-03-05T07:38:53.197Z,1.30
2019-03-05T07:39:53.163Z,1.90
2019-03-05T07:40:53.155Z,3.70
2019-03-05T07:41:53.163Z,4.00
2019-03-05T07:42:53.163Z,2.50
2019-03-05T07:43:53.144Z,1.50
2019-03-05T07:44:53.106Z,2.30
2019-03-05T07:45:53.110Z,2.60
2019-03-05T07:46:53.084Z,1.80
2019-03-05T07:47:53.077Z,1.40
2019-03-05T07:48:53.087Z,2.40
2019-03-05T07:49:53.054Z,1.80
2019-03-05T07:50:53.044Z,2.00
2019-03-05T07:51:53.032Z,2.70
2019-03-05T07:52:53.092Z,2.70
2019-03-05T07:53:53.029Z,1.80
2019-03-05T07:54:53.030Z,1.90
2019-03-05T07:55:52.989Z,1.60
2019-03-05T07:56:52.976Z,2.80
2019-03-05T07:57:52.993Z,2.40
2019-03-05T07:58:52.952Z,1.60
2019-03-05T07:59:52.967Z,1.70
2019-03-05T08:00:52.943Z,2.30
2019-03-05T08:01:52.921Z,3.40
2019-03-05T08:02:52.912Z,1.70
2019-03-05T08:03:52.901Z,1.30
2019-03-05T08:04:52.912Z,2.10
2019-03-05T08:05:52.875Z,1.90
2019-03-05T08:06:52.902Z,2.10
2019-03-05T08:07:52.854Z,2.10
2019-03-05T08:08:52.845Z,1.60
2019-03-05T08:09:52.860Z,0.90
2019-03-05T08:10:52.830Z,1.50
2019-03-05T08:11:52.808Z,2.50
2019-03-05T08:12:52.799Z,1.60
2019-03-05T08:13:52.789Z,2.80
2019-03-05T08:14:52.803Z,2.20
2019-03-05T08:16:01.990Z,2.10
2019-03-05T08:16:53.755Z,1.10
2019-03-05T08:17:52.744Z,1.50
2019-03-05T08:18:52.736Z,0.80
2019-03-05T08:19:52.751Z,1.30
2019-03-05T08:20:52.710Z,1.60
2019-03-05T08:21:52.704Z,1.00
2019-03-05T08:22:52.689Z,1.50
2019-03-05T08:23:52.689Z,2.70
2019-03-05T08:24:52.706Z,1.50
2019-03-05T08:25:52.693Z,1.40
2019-03-05T08:26:52.663Z,0.70
2019-03-05T08:27:52.634Z,1.10
2019-03-05T08:28:52.639Z,1.70
2019-03-05T08:29:52.611Z,1.10
2019-03-05T08:30:52.626Z,0.90
2019-03-05T08:31:52.610Z,0.80
2019-03-05T08:32:52.583Z,1.00
2019-03-05T08:33:52.571Z,0.60
2019-03-05T08:34:52.573Z,0.90
2019-03-05T08:35:52.685Z,0.90
2019-03-05T08:36:52.533Z,0.50
2019-03-05T08:37:52.532Z,0.70
2019-03-05T08:38:52.513Z,1.50
2019-03-05T08:39:52.502Z,0.70
2019-03-05T08:40:52.842Z,0.40
2019-03-05T08:41:52.480Z,0.80
2019-03-05T08:42:52.497Z,0.50
2019-03-05T08:43:54.348Z,0.90
2019-03-05T08:44:52.448Z,0.70
2019-03-05T08:45:52.464Z,1.80
2019-03-05T08:46:52.428Z,0.30
2019-03-05T08:47:52.413Z,0.60
2019-03-05T08:48:52.407Z,0.50
2019-03-05T08:49:52.392Z,0.80
2019-03-05T08:50:52.418Z,0.60
2019-03-05T08:51:52.373Z,1.70
2019-03-05T08:52:52.379Z,0.70
2019-03-05T08:53:52.569Z,1.20
2019-03-05T08:54:52.335Z,0.50
2019-03-05T08:55:52.349Z,0.30
2019-03-05T08:56:52.323Z,2.10
2019-03-05T08:57:52.305Z,4.10
2019-03-05T08:58:52.295Z,2.10
2019-03-05T08:59:52.282Z,1.30
2019-03-05T09:00:52.301Z,1.60
2019-03-05T09:01:52.275Z,0.70
2019-03-05T09:02:52.249Z,1.20
2019-03-05T09:03:52.245Z,0.50
2019-03-05T09:04:52.221Z,0.70
2019-03-05T09:05:52.215Z,1.00
2019-03-05T09:06:52.222Z,0.80
2019-03-05T09:07:52.185Z,1.50
2019-03-05T09:08:52.174Z,1.00
2019-03-05T09:09:52.184Z,0.80
2019-03-05T09:10:52.257Z,0.50
2019-03-05T09:11:52.628Z,2.00
2019-03-05T09:12:52.133Z,0.60
2019-03-05T09:13:52.129Z,0.30
2019-03-05T09:14:52.116Z,0.80
2019-03-05T09:15:52.094Z,2.60
2019-03-05T09:16:52.128Z,0.80
2019-03-05T09:17:52.070Z,0.80
2019-03-05T09:18:52.061Z,1.50
2019-03-05T09:19:52.052Z,0.90
2019-03-05T09:20:52.038Z,0.60
2019-03-05T09:21:52.053Z,1.10
2019-03-05T09:22:52.028Z,0.80
2019-03-05T09:23:52.014Z,1.60
2019-03-05T09:24:51.991Z,0.50
2019-03-05T09:25:52.000Z,0.50
2019-03-05T09:26:51.992Z,0.80
2019-03-05T09:27:51.957Z,1.40
2019-03-05T09:28:51.954Z,0.80
2019-03-05T09:29:51.941Z,1.90
2019-03-05T09:30:51.921Z,1.70
2019-03-05T09:31:51.939Z,0.60
2019-03-05T09:32:51.915Z,2.50
2019-03-05T09:33:51.888Z,1.10
2019-03-05T09:34:51.875Z,0.50
2019-03-05T09:35:51.867Z,1.90
2019-03-05T09:36:51.880Z,1.30
2019-03-05T09:37:51.849Z,1.10
2019-03-05T09:38:51.835Z,1.90
2019-03-05T09:39:51.869Z,1.80
2019-03-05T09:40:51.811Z,1.00
2019-03-05T09:41:51.819Z,0.60
2019-03-05T09:42:51.791Z,1.00
2019-03-05T09:43:51.778Z,0.80
2019-03-05T09:44:51.761Z,1.90
2019-03-05T09:45:51.749Z,1.50
2019-03-05T09:46:51.777Z,0.80
2019-03-05T09:47:51.727Z,1.20
2019-03-05T09:48:51.723Z,0.90
2019-03-05T09:49:51.706Z,1.40
2019-03-05T09:50:51.696Z,0.60
2019-03-05T09:51:51.712Z,0.80
2019-03-05T09:52:55.220Z,0.40
2019-03-05T09:53:51.657Z,0.50
2019-03-05T09:54:51.690Z,0.50
2019-03-05T09:55:51.632Z,1.90
2019-03-05T09:56:51.646Z,0.80
2019-03-05T09:57:51.617Z,0.70
2019-03-05T09:58:51.599Z,1.20
2019-03-05T09:59:51.587Z,0.80
2019-03-05T10:00:51.576Z,1.50
2019-03-05T10:01:51.591Z,1.00
2019-03-05T10:02:51.576Z,0.60
2019-03-05T10:03:51.564Z,0.60
2019-03-05T10:04:51.532Z,0.60
2019-03-05T10:05:51.518Z,1.10
2019-03-05T10:06:51.508Z,0.90
2019-03-05T10:07:51.523Z,0.80
2019-03-05T10:08:51.489Z,0.50
2019-03-05T10:09:51.490Z,1.40
2019-03-05T10:10:51.466Z,1.10
2019-03-05T10:11:56.523Z,1.10
2019-03-05T10:12:52.475Z,0.50
2019-03-05T10:13:51.429Z,0.90
2019-03-05T10:14:51.427Z,0.90
2019-03-05T10:15:53.421Z,0.60
2019-03-05T10:16:51.392Z,0.60
2019-03-05T10:17:51.415Z,0.60
2019-03-05T10:18:51.382Z,1.70
2019-03-05T10:19:51.388Z,0.80
2019-03-05T10:20:51.347Z,1.40
2019-03-05T10:21:51.393Z,1.10
2019-03-05T10:22:51.360Z,0.90
2019-03-05T10:23:51.348Z,1.40
2019-03-05T10:24:51.299Z,1.50
2019-03-05T10:25:51.365Z,0.90
2019-03-05T10:26:51.287Z,1.20
2019-03-05T10:27:51.292Z,1.70
2019-03-05T10:28:51.268Z,1.60
2019-03-05T10:29:52.475Z,0.80
2019-03-05T10:30:51.233Z,0.40
2019-03-05T10:31:51.225Z,0.40
2019-03-05T10:32:51.237Z,1.50
2019-03-05T10:33:51.211Z,0.70
2019-03-05T10:34:51.202Z,1.70
2019-03-05T10:35:51.175Z,1.10
2019-03-05T10:36:51.164Z,0.30
2019-03-05T10:37:51.180Z,1.30
2019-03-05T10:38:57.238Z,0.80
2019-03-05T10:39:52.135Z,0.70
2019-03-05T10:40:51.160Z,0.30
2019-03-05T10:41:51.108Z,0.70
2019-03-05T10:42:51.120Z,3.00
2019-03-05T10:43:51.096Z,0.60
2019-03-05T10:44:51.087Z,0.60
2019-03-05T10:45:51.062Z,0.60
2019-03-05T10:46:51.055Z,1.00
2019-03-05T10:47:51.073Z,0.60
2019-03-05T10:48:51.023Z,0.30
2019-03-05T10:49:51.013Z,0.30
2019-03-05T10:50:51.255Z,0.80
2019-03-05T10:51:50.991Z,0.50
2019-03-05T10:52:51.015Z,1.50
2019-03-05T10:53:50.999Z,1.70
2019-03-05T10:54:50.982Z,0.90
2019-03-05T10:55:50.947Z,0.70
2019-03-05T10:56:50.942Z,0.50
2019-03-05T10:57:50.927Z,0.60
2019-03-05T10:58:50.935Z,1.00
2019-03-05T10:59:50.901Z,0.30
2019-03-05T11:00:50.886Z,0.90
2019-03-05T11:01:50.882Z,0.40
2019-03-05T11:02:50.869Z,0.70
2019-03-05T11:03:50.877Z,1.70
2019-03-05T11:04:52.367Z,0.50
2019-03-05T11:05:50.829Z,0.30
2019-03-05T11:06:50.881Z,0.80
2019-03-05T11:07:50.812Z,0.40
2019-03-05T11:08:50.949Z,0.60
2019-03-05T11:09:50.796Z,1.00
2019-03-05T11:10:50.776Z,0.30
2019-03-05T11:11:50.843Z,0.80
2019-03-05T11:12:50.749Z,0.30
2019-03-05T11:13:50.763Z,0.30
2019-03-05T11:14:50.831Z,1.10
2019-03-05T11:15:50.714Z,1.10
2019-03-05T11:16:50.791Z,0.70
2019-03-05T11:17:50.692Z,1.10
2019-03-05T11:18:50.705Z,1.60
2019-03-05T11:19:50.670Z,1.00
2019-03-05T11:20:50.662Z,1.00
2019-03-05T11:21:50.650Z,1.20
2019-03-05T11:22:50.942Z,0.40
2019-03-05T11:23:50.657Z,0.50
2019-03-05T11:24:50.615Z,1.10
2019-03-05T11:25:50.602Z,0.30
2019-03-05T11:26:50.625Z,0.40
2019-03-05T11:27:50.579Z,0.50
2019-03-05T11:28:50.598Z,0.60
2019-03-05T11:29:50.557Z,1.00
2019-03-05T11:30:50.546Z,0.90
2019-03-05T11:31:50.543Z,0.70
2019-03-05T11:32:50.526Z,1.10
2019-03-05T11:33:50.537Z,0.70
2019-03-05T11:34:50.503Z,0.80
2019-03-05T11:35:50.495Z,0.80
2019-03-05T11:36:50.483Z,2.10
2019-03-05T11:37:50.468Z,1.00
2019-03-05T11:38:50.474Z,0.70
2019-03-05T11:39:50.470Z,1.20
2019-03-05T11:40:50.444Z,1.80
2019-03-05T11:41:50.427Z,1.70
2019-03-05T11:42:50.419Z,0.70
2019-03-05T11:43:50.492Z,1.00
2019-03-05T11:45:03.858Z,1.20
2019-03-05T11:45:51.382Z,1.80
2019-03-05T11:46:50.371Z,1.30
2019-03-05T11:47:50.358Z,1.60
2019-03-05T11:48:50.350Z,1.70
2019-03-05T11:49:50.376Z,1.80
2019-03-05T11:50:51.595Z,1.20
2019-03-05T11:51:50.339Z,2.30
2019-03-05T11:52:50.308Z,1.80
2019-03-05T11:53:50.297Z,1.30
2019-03-05T11:54:50.303Z,2.00
2019-03-05T11:55:50.269Z,2.10
2019-03-05T11:56:50.259Z,1.80
2019-03-05T11:57:50.245Z,3.10
2019-03-05T11:58:50.234Z,2.10
2019-03-05T11:59:50.250Z,2.80
2019-03-05T12:00:50.209Z,3.10
2019-03-05T12:01:50.198Z,1.60
2019-03-05T12:02:50.187Z,1.70
2019-03-05T12:03:50.176Z,1.10
2019-03-05T12:04:50.211Z,1.90
2019-03-05T12:05:50.158Z,2.70
2019-03-05T12:06:50.142Z,2.30
2019-03-05T12:07:50.132Z,2.10
2019-03-05T12:08:50.147Z,2.10
2019-03-05T12:09:50.134Z,2.70
2019-03-05T12:10:50.099Z,2.10
2019-03-05T12:11:50.092Z,1.20
2019-03-05T12:12:50.105Z,1.50
2019-03-05T12:13:50.062Z,1.90
2019-03-05T12:14:50.080Z,3.00
2019-03-05T12:15:50.051Z,2.10
2019-03-05T12:16:50.031Z,4.30
2019-03-05T12:17:50.039Z,1.70
2019-03-05T12:18:50.008Z,1.80
2019-03-05T12:19:50.044Z,2.70
2019-03-05T12:20:49.985Z,2.00
2019-03-05T12:21:49.981Z,1.70
2019-03-05T12:22:49.969Z,3.90
2019-03-05T12:23:49.955Z,1.60
2019-03-05T12:24:49.964Z,0.70
2019-03-05T12:25:49.932Z,2.00
2019-03-05T12:26:49.917Z,2.80
2019-03-05T12:27:49.920Z,2.50
2019-03-05T12:28:49.899Z,1.80
2019-03-05T12:29:49.911Z,3.30
2019-03-05T12:30:49.872Z,2.90
2019-03-05T12:31:49.859Z,3.00
2019-03-05T12:32:49.848Z,3.10
2019-03-05T12:33:49.839Z,2.80
2019-03-05T12:34:49.854Z,3.10
2019-03-05T12:35:49.819Z,2.20
2019-03-05T12:36:49.803Z,2.50
2019-03-05T12:37:49.797Z,3.40
2019-03-05T12:38:49.785Z,2.30
2019-03-05T12:39:49.807Z,3.40
2019-03-05T12:40:49.759Z,2.80
2019-03-05T12:41:49.749Z,3.70
2019-03-05T12:42:49.736Z,1.90
2019-03-05T12:43:49.728Z,1.70
2019-03-05T12:44:49.714Z,1.50
2019-03-05T12:45:49.727Z,2.40
2019-03-05T12:46:49.692Z,1.10
2019-03-05T12:47:49.681Z,1.60
2019-03-05T12:48:49.666Z,1.70
2019-03-05T12:49:49.659Z,0.90
2019-03-05T12:50:49.696Z,1.60
2019-03-05T12:51:49.637Z,2.20
2019-03-05T12:52:49.624Z,1.60
2019-03-05T12:53:49.612Z,2.20
2019-03-05T12:54:49.604Z,1.60
2019-03-05T12:55:49.617Z,2.10
2019-03-05T12:56:49.581Z,1.20
2019-03-05T12:57:49.567Z,3.40
2019-03-05T12:58:49.568Z,1.80
2019-03-05T12:59:49.549Z,3.90
2019-03-05T13:00:49.560Z,3.10
2019-03-05T13:01:49.531Z,2.30
2019-03-05T13:02:49.510Z,2.40
2019-03-05T13:03:49.500Z,2.10
2019-03-05T13:04:49.495Z,2.10
2019-03-05T13:05:49.518Z,2.60
2019-03-05T13:06:49.467Z,1.40
2019-03-05T13:07:52.508Z,3.30
2019-03-05T13:08:50.451Z,1.50
2019-03-05T13:09:52.492Z,2.30
2019-03-05T13:10:50.446Z,1.00
2019-03-05T13:11:49.941Z,1.10
2019-03-05T13:12:49.409Z,1.30
2019-03-05T13:13:52.732Z,0.50
2019-03-05T13:14:50.381Z,1.00
2019-03-05T13:15:52.862Z,0.70
2019-03-05T13:16:50.353Z,1.60
2019-03-05T13:17:51.522Z,1.50
2019-03-05T13:18:49.338Z,0.70